Time;durP1;ratioP1;P1;durP2;ratioP2;P2;SDS_P1;SDS_P2;PMS_P1;PMS_P2;Temp;Humidity;BMP_temperature;BMP_pressure;BME280_temperature;BME280_humidity;BME280_pressure;Samples;Min_cycle;Max_cycle;Signal;HPM_P1;HPM_P2
2022/10/26 05:07:28;;;;;;;5.70;2.38;;;;;;;14.23;67.29;96692.38;4898491;29;20454;-80
2022/10/26 05:10:03;;;;;;;8.20;2.70;;;;;;;14.21;67.04;96681.28;4881338;29;20041;-81
2022/10/26 05:12:39;;;;;;;5.38;2.75;;;;;;;14.19;67.23;96680.66;4881057;29;20057;-80
2022/10/26 10:42:22;;;;;;;8.00;2.45;;;;;;;18.48;65.96;97009.47;4955197;23;20164;-79
2022/10/26 10:44:52;;;;;;;7.20;2.58;;;;;;;20.17;60.79;97003.03;4918855;29;20083;-79
2022/10/26 10:47:25;;;;;;;5.40;2.33;;;;;;;22.66;52.98;97011.09;4918660;29;20087;-79
2022/10/26 10:53:51;;;;;;;7.05;1.98;;;;;;;25.89;44.25;97023.47;4918951;29;20111;-80
2022/10/26 10:56:40;;;;;;;7.25;1.67;;;;;;;26.59;42.45;97025.41;4924770;29;20052;-80
2022/10/26 10:59:25;;;;;;;7.72;1.80;;;;;;;27.59;40.86;97024.28;4920367;29;20526;-80
2022/10/26 11:02:12;;;;;;;4.93;1.98;;;;;;;28.51;38.05;97019.91;4919829;29;20421;-80
2022/10/26 11:04:58;;;;;;;7.65;2.22;;;;;;;29.66;36.29;97013.44;4919679;29;20115;-80
2022/10/26 11:07:28;;;;;;;6.03;1.70;;;;;;;30.80;34.15;97011.81;4919883;29;20524;-81
2022/10/26 11:10:00;;;;;;;5.60;1.90;;;;;;;32.11;32.81;97006.59;4919542;29;20048;-82
2022/10/26 11:12:31;;;;;;;4.40;1.77;;;;;;;33.33;30.17;97014.94;4919397;29;20059;-80
2022/10/26 11:15:05;;;;;;;3.50;1.48;;;;;;;34.10;28.09;97015.09;4919367;29;20052;-81
2022/10/26 11:17:38;;;;;;;3.97;1.98;;;;;;;34.49;27.35;97018.63;4919347;29;20056;-80
2022/10/26 11:20:12;;;;;;;5.10;1.83;;;;;;;34.53;26.68;97014.13;4918939;29;20056;-81
2022/10/26 11:22:58;;;;;;;2.45;1.30;;;;;;;34.63;27.15;97017.28;4919430;29;20058;-80
2022/10/26 11:25:30;;;;;;;3.78;1.42;;;;;;;35.35;26.72;97019.16;4919584;29;20059;-81
2022/10/26 11:28:02;;;;;;;6.32;1.40;;;;;;;35.97;25.71;97020.94;4919313;29;20058;-81
2022/10/26 11:30:36;;;;;;;5.25;1.40;;;;;;;36.33;25.12;97016.69;4918251;29;20063;-81
2022/10/26 11:33:10;;;;;;;5.93;1.70;;;;;;;36.45;25.02;97022.13;4919207;29;20052;-81
2022/10/26 11:35:43;;;;;;;6.38;1.25;;;;;;;36.04;24.45;97028.53;4919361;29;20052;-80
2022/10/26 11:38:18;;;;;;;6.78;1.42;;;;;;;35.25;25.22;97026.59;4918550;29;20051;-80
2022/10/26 11:41:13;;;;;;;5.65;1.40;;;;;;;35.03;26.17;97021.47;4918924;29;20048;-80
2022/10/26 11:43:45;;;;;;;5.75;1.98;;;;;;;35.40;25.19;97029.78;4918650;29;20052;-80
2022/10/26 11:46:17;;;;;;;5.63;1.45;;;;;;;36.14;25.01;97021.88;4918392;29;20048;-81
2022/10/26 11:48:54;;;;;;;8.35;1.77;;;;;;;36.84;23.32;97019.81;4917683;29;20086;-80
2022/10/26 11:51:35;;;;;;;4.63;1.75;;;;;;;37.41;23.29;97031.56;4918070;29;20062;-81
2022/10/26 11:54:09;;;;;;;4.93;1.40;;;;;;;38.05;22.23;97027.09;4918033;29;20522;-80
2022/10/26 11:56:41;;;;;;;7.60;1.50;;;;;;;38.43;21.64;97031.09;4917886;29;20059;-80
2022/10/26 11:59:17;;;;;;;5.63;1.48;;;;;;;38.77;21.19;97028.78;4917844;29;20048;-81
2022/10/26 12:01:48;;;;;;;6.30;1.50;;;;;;;39.05;20.92;97034.06;4917944;29;20056;-80
2022/10/26 12:04:17;;;;;;;4.05;1.33;;;;;;;38.74;21.23;97034.94;4917885;29;20417;-80
2022/10/26 12:06:47;;;;;;;4.40;1.60;;;;;;;37.46;22.43;97034.06;4917765;29;20048;-80
2022/10/26 12:09:20;;;;;;;5.75;1.50;;;;;;;36.41;23.42;97040.25;4917246;29;20111;-81
2022/10/26 12:11:52;;;;;;;3.65;1.70;;;;;;;34.93;24.88;97046.25;4917739;29;20421;-80
2022/10/26 12:14:24;;;;;;;6.70;1.75;;;;;;;33.40;27.14;97039.59;4917975;29;20048;-80
2022/10/26 12:16:59;;;;;;;8.00;1.70;;;;;;;32.19;28.52;97040.94;4917359;29;20090;-80
2022/10/26 12:19:34;;;;;;;2.78;1.73;;;;;;;31.26;30.19;97046.94;4917189;29;20052;-80
2022/10/26 12:22:02;;;;;;;3.53;1.60;;;;;;;30.54;31.37;97043.06;4917240;29;20056;-80
2022/10/26 12:24:34;;;;;;;5.55;1.42;;;;;;;29.87;32.63;97040.78;4916794;29;20044;-80
2022/10/26 12:27:02;;;;;;;;;;;;;;;29.45;33.10;97047.91;4917584;29;20056;-80
2022/10/26 12:29:45;;;;;;;5.00;1.70;;;;;;;28.82;33.80;97049.03;4916784;29;19927;-80
2022/10/26 12:32:49;;;;;;;4.70;1.77;;;;;;;28.20;35.11;97055.09;4916932;29;20052;-80
2022/10/26 12:35:39;;;;;;;6.72;1.77;;;;;;;27.61;36.52;97051.59;4917168;29;20055;-80
2022/10/26 12:38:47;;;;;;;4.43;1.25;;;;;;;27.17;36.92;97051.63;4916471;29;20478;-81
2022/10/26 12:41:30;;;;;;;4.80;1.90;;;;;;;26.77;37.64;97054.25;4919174;29;20494;-80
2022/10/26 12:44:01;;;;;;;4.97;1.67;;;;;;;26.41;39.25;97050.88;4920833;29;20111;-80
2022/10/26 12:46:38;;;;;;;2.85;1.45;;;;;;;26.02;39.42;97057.66;4923366;29;20079;-80
2022/10/26 12:49:57;;;;;;;3.85;1.50;;;;;;;25.72;40.16;97060.34;4922541;29;20052;-80
2022/10/26 12:52:52;;;;;;;5.82;1.63;;;;;;;25.50;40.22;97056.06;4923247;29;20082;-79
2022/10/26 12:55:43;;;;;;;4.30;1.63;;;;;;;25.30;41.40;97051.50;4922830;29;20517;-79
2022/10/26 12:58:46;;;;;;;5.82;1.55;;;;;;;25.16;41.39;97069.84;4922703;29;20055;-80
2022/10/26 13:01:41;;;;;;;4.72;1.50;;;;;;;24.99;42.09;97075.44;4922837;29;20062;-80
2022/10/26 13:04:24;;;;;;;8.10;1.73;;;;;;;24.85;42.15;97071.66;4920503;29;20052;-80
2022/10/26 13:07:13;;;;;;;7.35;2.17;;;;;;;24.75;42.83;97075.09;4922543;29;20063;-81
2022/10/26 13:09:46;;;;;;;3.55;1.50;;;;;;;24.64;43.25;97070.75;4922409;29;20056;-80
2022/10/26 13:12:13;;;;;;;6.65;2.05;;;;;;;24.57;43.30;97068.31;4922605;29;20056;-80
2022/10/26 13:14:56;;;;;;;3.10;1.50;;;;;;;24.46;44.38;97070.13;4922040;29;20056;-80
2022/10/26 13:17:27;;;;;;;11.93;1.85;;;;;;;24.31;44.60;97075.38;4922044;29;20054;-80
2022/10/26 13:19:57;;;;;;;5.70;1.75;;;;;;;24.16;44.65;97078.78;4921738;29;20048;-80
2022/10/26 13:22:25;;;;;;;4.97;1.45;;;;;;;24.05;45.18;97079.75;4922403;29;20107;-80
2022/10/26 13:25:00;;;;;;;7.47;1.40;;;;;;;23.91;45.56;97081.25;4921579;29;20502;-80
2022/10/26 13:27:42;;;;;;;8.80;3.15;;;;;;;23.79;45.08;97087.56;4922116;29;20056;-81
2022/10/26 13:30:45;;;;;;;10.07;3.70;;;;;;;23.71;45.52;97090.66;4921813;29;20048;-79
2022/10/26 13:33:30;;;;;;;;;;;;;;;23.65;45.62;97086.34;4919129;29;20059;-80
2022/10/26 13:36:02;;;;;;;3.47;1.90;;;;;;;23.50;46.05;97086.22;4911044;29;19929;-80
2022/10/26 13:38:33;;;;;;;3.83;1.83;;;;;;;23.36;46.71;97083.97;4921536;29;20059;-80
2022/10/26 13:41:19;;;;;;;5.53;1.90;;;;;;;23.27;47.07;97085.47;4921630;29;20054;-80
2022/10/26 13:43:47;;;;;;;4.68;2.05;;;;;;;23.21;47.68;97084.59;4924132;29;20052;-81
2022/10/26 13:46:26;;;;;;;2.67;1.52;;;;;;;23.15;48.33;97088.25;4925611;29;20063;-80
2022/10/26 13:49:00;;;;;;;3.85;1.55;;;;;;;23.10;48.46;97085.56;4923724;29;20063;-80
2022/10/26 13:51:39;;;;;;;4.50;1.67;;;;;;;23.03;48.63;97096.41;4929452;29;20051;-80
2022/10/26 13:54:17;;;;;;;4.88;1.77;;;;;;;22.99;49.58;97099.78;4919912;29;20111;-80
2022/10/26 13:56:58;;;;;;;9.75;2.38;;;;;;;22.90;49.34;97091.44;4920765;29;20517;-80
2022/10/26 13:59:28;;;;;;;12.90;2.13;;;;;;;22.86;49.23;97108.94;4920112;29;20448;-80
2022/10/26 14:02:06;;;;;;;6.22;1.70;;;;;;;22.78;49.34;97106.69;4920404;29;20100;-80
2022/10/26 14:04:34;;;;;;;6.22;2.28;;;;;;;22.71;48.99;97106.09;4920256;29;20052;-80
2022/10/26 14:07:01;;;;;;;6.25;1.85;;;;;;;22.61;48.94;97110.22;4920185;29;20060;-80
2022/10/26 14:09:30;;;;;;;5.50;1.73;;;;;;;22.54;49.55;97109.63;4919656;29;20415;-79
2022/10/26 14:12:01;;;;;;;9.02;2.15;;;;;;;22.48;49.37;97117.75;4920291;29;20404;-80
2022/10/26 14:14:32;;;;;;;3.53;2.17;;;;;;;22.44;50.49;97114.00;4921690;29;20052;-80
2022/10/26 14:17:00;;;;;;;5.43;1.77;;;;;;;22.40;49.78;97116.31;4919947;29;20052;-80
2022/10/26 14:19:30;;;;;;;7.78;2.00;;;;;;;22.33;50.17;97121.81;4919297;29;20498;-79
2022/10/26 14:21:58;;;;;;;8.60;2.85;;;;;;;22.29;51.01;97114.56;4919323;29;20056;-80
2022/10/26 14:24:28;;;;;;;5.45;2.30;;;;;;;22.23;50.11;97112.88;4919948;29;20055;-80
2022/10/26 14:27:16;;;;;;;3.42;1.70;;;;;;;22.18;51.20;97109.06;4919244;29;20139;-79
2022/10/26 14:29:44;;;;;;;4.72;2.17;;;;;;;22.16;50.59;97113.03;4918617;29;20056;-80
2022/10/26 14:32:27;;;;;;;7.47;1.60;;;;;;;22.12;51.25;97112.69;4918976;29;20048;-80
2022/10/26 14:34:55;;;;;;;7.38;2.30;;;;;;;22.10;50.77;97119.31;4918750;29;20502;-80
2022/10/26 14:37:34;;;;;;;5.50;2.15;;;;;;;22.08;51.34;97122.19;4919025;29;20056;-79
2022/10/26 14:40:03;;;;;;;4.57;1.60;;;;;;;22.05;51.18;97130.66;4918201;29;20514;-80
2022/10/26 14:42:34;;;;;;;6.03;1.98;;;;;;;22.01;50.72;97132.97;4918902;29;20060;-79
2022/10/26 14:45:02;;;;;;;6.35;1.65;;;;;;;21.98;50.84;97136.13;4918340;29;20054;-80
2022/10/26 14:47:32;;;;;;;4.07;1.40;;;;;;;21.97;51.38;97134.53;4918151;29;20508;-80
2022/10/26 14:50:01;;;;;;;7.93;1.98;;;;;;;21.96;51.07;97134.78;4918091;29;20064;-80
2022/10/26 14:52:32;;;;;;;9.07;1.77;;;;;;;21.97;51.92;97144.34;4918272;29;20058;-80
2022/10/26 14:55:01;;;;;;;6.25;1.70;;;;;;;21.96;50.96;97142.75;4918555;29;20491;-80
2022/10/26 14:57:33;;;;;;;3.75;1.65;;;;;;;21.95;50.89;97138.47;4918393;29;20044;-80
2022/10/26 15:00:03;;;;;;;5.78;1.73;;;;;;;21.91;50.89;97142.63;4917935;29;20076;-79
2022/10/26 15:02:31;;;;;;;7.07;1.55;;;;;;;21.90;53.22;97141.03;4917984;29;20056;-80
2022/10/26 15:05:00;;;;;;;4.57;1.75;;;;;;;21.89;52.15;97139.44;4916699;29;20052;-79
2022/10/26 15:07:36;;;;;;;4.53;1.75;;;;;;;21.85;51.42;97144.41;4919211;29;20056;-81
2022/10/26 15:10:04;;;;;;;9.68;2.15;;;;;;;21.82;51.22;97152.84;4920950;29;20143;-80
2022/10/26 15:12:35;;;;;;;5.35;1.52;;;;;;;21.78;51.70;97154.41;4920164;29;20056;-81
2022/10/26 15:15:19;;;;;;;7.88;2.03;;;;;;;21.71;51.58;97149.25;4918777;29;20048;-80
2022/10/26 15:17:51;;;;;;;4.82;1.88;;;;;;;21.67;51.46;97152.59;4918795;29;20590;-80
2022/10/26 15:20:22;;;;;;;8.35;1.65;;;;;;;21.61;51.36;97151.72;4918639;29;20063;-80
2022/10/26 15:22:51;;;;;;;7.07;1.65;;;;;;;21.57;51.70;97150.56;4918585;29;20056;-80
2022/10/26 15:25:23;;;;;;;6.93;1.90;;;;;;;21.52;51.73;97153.94;4918147;29;20066;-80
2022/10/26 15:27:52;;;;;;;4.68;1.50;;;;;;;21.49;52.29;97150.94;4918060;29;20062;-81
2022/10/26 15:30:23;;;;;;;5.25;1.80;;;;;;;21.43;51.92;97160.69;4918432;29;20051;-80
2022/10/26 15:32:52;;;;;;;8.52;1.88;;;;;;;21.36;52.25;97152.84;4918046;29;20578;-80
2022/10/26 15:35:27;;;;;;;3.40;1.27;;;;;;;21.31;52.03;97162.53;4917866;29;20080;-79
2022/10/26 15:37:55;;;;;;;6.75;2.63;;;;;;;21.29;52.87;97161.97;4917508;29;20056;-80
2022/10/26 15:40:24;;;;;;;8.52;3.00;;;;;;;21.26;52.91;97163.25;4917595;29;20510;-80
2022/10/26 15:43:00;;;;;;;5.90;2.72;;;;;;;21.22;53.81;97167.41;4918050;29;20419;-80
2022/10/26 15:45:31;;;;;;;7.30;2.17;;;;;;;21.18;54.52;97163.63;4917709;29;20060;-79
2022/10/26 15:48:15;;;;;;;4.65;1.75;;;;;;;21.14;54.67;97171.25;4917256;29;20485;-80
2022/10/26 15:50:43;;;;;;;5.20;1.75;;;;;;;21.09;54.40;97176.44;4917545;29;20131;-80
2022/10/26 15:53:17;;;;;;;4.32;2.10;;;;;;;21.04;55.55;97180.84;4917874;29;20054;-83
2022/10/26 15:55:44;;;;;;;10.70;3.85;;;;;;;20.99;55.40;97176.25;4917718;29;20125;-80
2022/10/26 15:58:14;;;;;;;11.77;6.35;;;;;;;20.94;55.28;97187.53;4917452;29;20055;-80
2022/10/26 16:00:42;;;;;;;11.13;6.40;;;;;;;20.89;54.91;97190.09;4917637;29;20063;-80
2022/10/26 16:03:13;;;;;;;7.30;3.65;;;;;;;20.82;54.03;97193.94;4917233;29;20051;-80
2022/10/26 16:05:41;;;;;;;6.75;2.78;;;;;;;20.74;54.96;97187.91;4917332;29;20071;-79
2022/10/26 16:08:12;;;;;;;7.97;2.47;;;;;;;20.68;54.94;97188.03;4916778;29;20062;-79
2022/10/26 16:10:45;;;;;;;10.95;2.75;;;;;;;20.62;55.08;97195.09;4917615;29;20135;-80
2022/10/26 16:13:15;;;;;;;11.50;3.33;;;;;;;20.51;56.13;97194.03;4916771;29;20104;-79
2022/10/26 16:15:43;;;;;;;15.68;2.90;;;;;;;20.41;56.45;97199.06;4916840;29;20058;-79
2022/10/26 16:18:10;;;;;;;9.20;2.22;;;;;;;20.29;56.51;97196.44;4916124;29;20056;-79
2022/10/26 16:20:38;;;;;;;14.27;2.30;;;;;;;20.17;57.04;97212.28;4916460;29;20055;-79
2022/10/26 16:23:06;;;;;;;6.20;2.10;;;;;;;20.04;57.21;97207.19;4916261;29;20079;-80
2022/10/26 16:25:39;;;;;;;6.00;2.55;;;;;;;19.93;57.68;97213.28;4916068;29;20060;-79
2022/10/26 16:28:07;;;;;;;9.80;3.58;;;;;;;19.81;57.74;97210.63;4915829;29;20052;-79
2022/10/26 16:30:36;;;;;;;6.95;2.75;;;;;;;19.70;58.15;97216.66;4916639;29;20056;-80
2022/10/26 16:33:04;;;;;;;7.25;3.35;;;;;;;19.60;58.38;97225.09;4938819;29;20059;-80
2022/10/26 16:35:31;;;;;;;8.68;2.63;;;;;;;19.50;58.62;97223.00;4934390;29;20060;-79
2022/10/26 16:37:59;;;;;;;9.90;2.92;;;;;;;19.40;58.80;97229.84;4917596;29;20068;-79
2022/10/26 22:39:38;;;;;;;6.72;2.95;;;;;;;14.61;71.40;97468.94;5436008;23;21022;-78
2022/10/26 22:42:06;;;;;;;9.25;2.85;;;;;;;14.61;71.90;97466.31;4919270;29;20561;-78
2022/10/26 22:44:33;;;;;;;7.25;3.30;;;;;;;14.60;71.71;97468.09;4918074;29;20052;-76
2022/10/26 22:47:01;;;;;;;6.97;2.90;;;;;;;14.61;71.85;97464.47;4917752;29;20048;-77
2022/10/26 22:49:28;;;;;;;8.93;3.72;;;;;;;14.62;71.58;97466.09;4917926;29;20083;-78
2022/10/26 22:51:56;;;;;;;7.90;3.38;;;;;;;14.65;71.74;97467.56;4917468;29;20075;-78
2022/10/26 22:54:23;;;;;;;10.50;3.20;;;;;;;14.65;71.63;97464.94;4917521;29;20052;-78
2022/10/26 22:56:52;;;;;;;7.68;2.85;;;;;;;14.63;71.59;97472.19;4917700;29;20060;-78
2022/10/26 22:59:20;;;;;;;9.15;3.25;;;;;;;14.63;71.84;97470.34;4917271;29;20063;-77
2022/10/26 23:01:47;;;;;;;9.80;3.30;;;;;;;14.62;71.52;97473.16;4917581;29;20063;-77
2022/10/26 23:04:15;;;;;;;10.93;3.75;;;;;;;14.61;72.00;97477.59;4917342;29;20083;-78
2022/10/26 23:06:43;;;;;;;8.70;3.47;;;;;;;14.62;71.74;97475.78;4917463;29;20111;-77
2022/10/26 23:09:10;;;;;;;5.70;2.83;;;;;;;14.64;71.85;97473.78;4917038;29;20107;-77
2022/10/26 23:11:38;;;;;;;7.18;2.38;;;;;;;14.65;72.18;97472.81;4917357;29;20056;-77
2022/10/26 23:14:07;;;;;;;10.73;2.80;;;;;;;14.65;71.93;97479.84;4917202;29;20067;-77
2022/10/26 23:16:34;;;;;;;8.43;3.00;;;;;;;14.66;71.88;97482.28;4917093;29;20051;-77
2022/10/26 23:19:02;;;;;;;9.60;3.08;;;;;;;14.64;71.74;97479.03;4916808;29;20056;-78
2022/10/26 23:21:29;;;;;;;7.50;2.80;;;;;;;14.64;72.35;97484.28;4917037;29;20503;-78
2022/10/26 23:23:57;;;;;;;12.45;3.42;;;;;;;14.62;71.78;97486.28;4917045;29;20047;-77
2022/10/26 23:26:24;;;;;;;7.53;3.13;;;;;;;14.60;71.67;97477.78;4915979;29;20052;-78
2022/10/26 23:28:52;;;;;;;8.00;3.88;;;;;;;14.59;71.66;97482.22;4916757;29;20574;-77
2022/10/26 23:31:24;;;;;;;6.68;2.67;;;;;;;14.58;71.66;97479.78;4916782;29;20048;-78
2022/10/26 23:33:53;;;;;;;8.15;3.08;;;;;;;14.57;71.63;97488.66;4916813;29;20108;-77
2022/10/26 23:36:20;;;;;;;7.38;2.80;;;;;;;14.56;71.39;97493.13;4916888;29;20055;-78
2022/10/26 23:38:48;;;;;;;7.70;3.45;;;;;;;14.55;71.67;97483.59;4916484;29;20056;-78
2022/10/26 23:41:16;;;;;;;6.95;3.20;;;;;;;14.55;71.38;97488.03;4916636;29;20058;-78
2022/10/26 23:43:43;;;;;;;8.52;3.38;;;;;;;14.51;71.45;97489.38;4916663;29;20052;-77
2022/10/26 23:46:11;;;;;;;12.68;3.33;;;;;;;14.46;71.40;97484.69;4916642;29;20082;-78
2022/10/26 23:48:40;;;;;;;7.88;3.10;;;;;;;14.43;71.50;97485.88;4916546;29;20099;-78
2022/10/26 23:51:07;;;;;;;6.82;3.20;;;;;;;14.41;71.65;97479.19;4916416;29;20525;-77
2022/10/26 23:53:35;;;;;;;10.73;2.90;;;;;;;14.37;71.56;97489.22;4916482;29;20048;-77
2022/10/26 23:56:03;;;;;;;6.25;2.72;;;;;;;14.35;71.61;97480.72;4916497;29;20051;-77
2022/10/26 23:58:30;;;;;;;11.52;3.03;;;;;;;14.32;71.62;97486.34;4915997;29;20430;-78
